createdAt,value
2022-10-03T00:01:37.713Z,98366.55411680139
2022-10-03T00:04:33.447Z,98369.61626896168
2022-10-03T00:07:36.264Z,98363.86138091111
2022-10-03T00:11:26.994Z,98366.82882848395
2022-10-03T00:14:23.588Z,98361.5832188692
2022-10-03T00:17:24.164Z,98371.80128669082
2022-10-03T00:21:27.163Z,98372.21708199558
2022-10-03T00:24:30.841Z,98372.35319513992
2022-10-03T00:27:30.437Z,98363.4696676825
2022-10-03T00:31:23.811Z,98367.02077429942
2022-10-03T00:34:32.493Z,98366.11089391727
2022-10-03T00:37:26.383Z,98362.27240088714
2022-10-03T00:41:45.190Z,98362.3292161873
2022-10-03T00:44:40.798Z,98360.8017845555
2022-10-03T00:47:36.316Z,98361.3321341138
2022-10-03T00:51:27.841Z,98361.9886142683
2022-10-03T00:54:32.119Z,98362.22563178153
2022-10-03T00:57:48.796Z,98357.74786094153
2022-10-03T01:01:39.146Z,98352.8902671007
2022-10-03T01:04:45.185Z,98351.95062975987
2022-10-03T01:07:32.563Z,98357.37488404031
2022-10-03T01:11:29.326Z,98355.44167033881
2022-10-03T01:14:31.560Z,98348.14806683539
2022-10-03T01:17:37.790Z,98345.99235235258
2022-10-03T01:21:32.297Z,98348.79008831552
2022-10-03T01:24:42.663Z,98343.70335361244
2022-10-03T01:27:24.574Z,98348.09663011946
2022-10-03T01:31:26.358Z,98346.52624148494
2022-10-03T01:34:30.830Z,98345.5721739074
2022-10-03T01:37:29.251Z,98347.65670250621
2022-10-03T01:41:29.924Z,98342.16952230378
2022-10-03T01:44:21.879Z,98340.93909333902
2022-10-03T01:47:24.186Z,98337.27834304427
2022-10-03T01:51:26.494Z,98333.81685280077
2022-10-03T01:54:25.574Z,98332.28404034239
2022-10-03T01:57:25.886Z,98328.2349717317
2022-10-03T02:01:25.530Z,98324.8626656351
2022-10-03T02:04:35.494Z,98324.59197770657
2022-10-03T02:07:29.149Z,98320.86031850266
2022-10-03T02:11:30.316Z,98324.4171715048
2022-10-03T02:14:27.399Z,98317.14522128062
2022-10-03T02:17:28.367Z,98314.23290860825
2022-10-03T02:21:20.791Z,98306.76159710747
2022-10-03T02:24:31.587Z,98308.15315243915
2022-10-03T02:27:37.205Z,98307.44778571116
2022-10-03T02:31:44.570Z,98309.37576635262
2022-10-03T02:51:58.689Z,98300.45065438609
2022-10-03T03:11:34.502Z,98306.37595851197
2022-10-03T03:14:50.703Z,98297.96592915762
2022-10-03T03:17:27.669Z,98302.95202130804
2022-10-03T03:21:26.565Z,98299.09244720166
2022-10-03T03:24:35.177Z,98292.40634430625
2022-10-03T03:27:31.122Z,98286.3800078785
2022-10-03T03:31:23.904Z,98299.19900142438
2022-10-03T03:34:28.228Z,98294.52614236275
2022-10-03T03:37:25.782Z,98292.35305570145
2022-10-03T03:41:46.529Z,98288.61555163171
2022-10-03T03:45:32.793Z,98288.61772862382
2022-10-03T03:47:34.997Z,98281.25888028971
2022-10-03T03:51:27.803Z,98267.94540536776
2022-10-03T03:54:36.976Z,98261.3827991494
2022-10-03T03:57:34.435Z,98262.15359011389
2022-10-03T04:01:44.673Z,98263.65477403598
2022-10-03T04:04:36.048Z,98259.2076132014
2022-10-03T04:07:32.031Z,98261.03431142445
2022-10-03T04:11:26.826Z,98254.13733590094
2022-10-03T04:14:34.452Z,98246.97895224078
2022-10-03T04:21:39.014Z,98233.43745918841
2022-10-03T04:24:35.867Z,98232.1153739056
2022-10-03T04:27:32.264Z,98233.75893113033
2022-10-03T04:31:33.667Z,98233.30833532111
2022-10-03T04:34:33.654Z,98231.42562150251
2022-10-03T04:37:23.917Z,98232.59658307386
2022-10-03T04:41:25.967Z,98223.18074219186
2022-10-03T04:44:38.945Z,98223.25461163186
2022-10-03T04:47:25.235Z,98224.81367050204
2022-10-03T04:51:23.099Z,98227.63234739144
2022-10-03T04:54:27.443Z,98224.01525406513
2022-10-03T04:57:27.990Z,98221.07096308835
2022-10-03T05:01:22.217Z,98218.08937909771
2022-10-03T05:04:29.610Z,98212.65559814102
2022-10-03T05:07:25.105Z,98208.1163132647
2022-10-03T05:11:35.488Z,98213.1973385127
2022-10-03T05:14:25.070Z,98210.33434286482
2022-10-03T05:17:27.605Z,98219.71601732331
2022-10-03T05:21:28.611Z,98220.52987784066
2022-10-03T05:24:30.732Z,98222.42496568634
2022-10-03T05:27:32.687Z,98225.3941136715
2022-10-03T05:31:29.222Z,98226.87915466708
2022-10-03T05:34:31.562Z,98228.89356828103
2022-10-03T05:37:34.179Z,98222.07540430978
2022-10-03T05:41:26.248Z,98222.42201554684
2022-10-03T05:44:21.009Z,98223.09507905594
2022-10-03T05:47:51.597Z,98225.32788821086
2022-10-03T05:51:43.446Z,98217.02238260611
2022-10-03T05:55:22.819Z,98220.75055986633
2022-10-03T05:57:47.981Z,98225.05252287044
2022-10-03T06:01:54.296Z,98222.62440701916
2022-10-03T06:04:39.572Z,98226.35310065083
2022-10-03T06:07:24.670Z,98222.63699942581
2022-10-03T06:12:29.999Z,98222.4308740768
2022-10-03T06:14:31.385Z,98224.5977695679
2022-10-03T06:19:25.948Z,98225.4239414705
2022-10-03T06:21:34.490Z,98229.08341138509
2022-10-03T06:42:26.099Z,98240.91179166904
2022-10-03T06:44:46.361Z,98239.09876303303
2022-10-03T06:47:28.660Z,98246.11384381905
2022-10-03T07:02:10.362Z,98235.80638643222
2022-10-03T07:04:40.845Z,98230.9717768966
2022-10-03T07:08:39.656Z,98230.3807382071
2022-10-03T07:11:34.583Z,98229.37210100281
2022-10-03T07:31:37.655Z,98243.52017197026
2022-10-03T07:35:03.235Z,98238.93182047305
2022-10-03T07:41:29.428Z,98237.02090328126
2022-10-03T07:45:09.550Z,98238.79863257332
2022-10-03T07:48:22.246Z,98232.68936596432
2022-10-03T07:51:27.605Z,98237.98362344122
2022-10-03T07:55:45.824Z,98241.34809881098
2022-10-03T07:57:40.762Z,98241.95696558016
2022-10-03T08:01:33.783Z,98242.63448129389
2022-10-03T08:21:21.320Z,98244.27733933115
2022-10-03T08:24:31.209Z,98247.01616426694
2022-10-03T08:27:31.447Z,98242.42483959362
2022-10-03T08:31:35.290Z,98242.059785463
2022-10-03T08:34:49.555Z,98238.58540954397
2022-10-03T08:42:20.747Z,98240.99222227142
2022-10-03T08:46:13.604Z,98238.5369153669
2022-10-03T08:48:00.244Z,98235.3894347214
2022-10-03T09:01:37.824Z,98229.82348508379
2022-10-03T09:04:54.297Z,98230.710411032
2022-10-03T09:07:41.353Z,98226.06757541781
2022-10-03T09:11:55.368Z,98231.26097573282
2022-10-03T09:31:49.784Z,98240.02947952478
2022-10-03T09:34:41.492Z,98236.80784827213
2022-10-03T09:38:07.052Z,98237.9834920817
2022-10-03T09:42:09.056Z,98241.3838429382
2022-10-03T09:44:35.429Z,98236.09898676742
2022-10-03T09:48:15.949Z,98232.81632792066
2022-10-03T09:51:34.632Z,98235.11604513321
2022-10-03T09:55:35.095Z,98233.15134309608
2022-10-03T09:57:51.954Z,98235.67917219146
2022-10-03T10:01:28.823Z,98223.49910846128
2022-10-03T10:05:19.603Z,98222.41378859153
2022-10-03T10:08:02.388Z,98214.18347909256
2022-10-03T10:11:25.828Z,98212.67422296733
2022-10-03T10:14:30.070Z,98212.14779219276
2022-10-03T10:17:46.684Z,98214.60174042622
2022-10-03T10:22:04.230Z,98216.73647488806
2022-10-03T10:32:34.412Z,98220.17000117389
2022-10-03T10:35:15.638Z,98209.5694647409
2022-10-03T10:37:50.620Z,98213.78361857556
2022-10-03T10:51:46.299Z,98200.80532807655
2022-10-03T11:01:54.379Z,98201.73589148377
2022-10-03T11:05:29.535Z,98206.33067439751
2022-10-03T11:12:25.963Z,98206.5322110822
2022-10-03T11:32:14.901Z,98186.30098431904
2022-10-03T11:36:58.216Z,98183.20548092756
2022-10-03T11:37:31.377Z,98180.34334037773
2022-10-03T11:41:28.819Z,98185.32474062835
2022-10-03T11:44:21.538Z,98184.0332130382
2022-10-03T11:47:34.823Z,98180.9204850515
2022-10-03T11:51:29.137Z,98183.04461865417
2022-10-03T11:54:31.487Z,98184.18609564897
2022-10-03T11:57:27.022Z,98182.22694389758
2022-10-03T12:01:34.199Z,98182.08856007144
2022-10-03T12:04:25.237Z,98180.2877763862
2022-10-03T12:11:23.030Z,98169.30072373104
2022-10-03T12:14:26.944Z,98176.41219704803
2022-10-03T12:17:30.594Z,98169.28898523624
2022-10-03T12:21:22.282Z,98163.49912011685
2022-10-03T12:24:25.259Z,98161.16492218658
2022-10-03T12:27:26.595Z,98163.60907298072
2022-10-03T12:31:21.741Z,98164.62072003672
2022-10-03T12:34:33.733Z,98159.1906054682
2022-10-03T12:37:53.545Z,98161.74364716302
2022-10-03T12:41:33.940Z,98162.64612667279
2022-10-03T12:44:34.592Z,98155.62219960881
2022-10-03T12:51:31.347Z,98147.52504937726
2022-10-03T12:54:33.581Z,98145.77615437031
2022-10-03T12:57:52.308Z,98141.61052425244
2022-10-03T13:01:27.404Z,98141.44706419126
2022-10-03T13:04:28.782Z,98131.82128725549
2022-10-03T13:07:26.579Z,98129.1411066947
2022-10-03T13:11:29.681Z,98127.89932922332
2022-10-03T13:14:43.785Z,98126.45601475312
2022-10-03T13:17:27.266Z,98123.49855086174
2022-10-03T13:21:44.481Z,98125.45556466072
2022-10-03T13:24:31.195Z,98122.97815113187
2022-10-03T13:27:33.232Z,98119.80025832863
2022-10-03T13:31:29.357Z,98122.07553530874
2022-10-03T13:34:20.036Z,98117.0731725993
2022-10-03T13:37:27.325Z,98114.53322453903
2022-10-03T13:41:25.854Z,98115.0338905033
2022-10-03T13:44:19.567Z,98116.67067690572
2022-10-03T13:47:26.934Z,98120.57196319346
2022-10-03T13:51:34.105Z,98119.21943714704
2022-10-03T13:54:43.904Z,98118.88771428484
2022-10-03T13:57:26.463Z,98120.7093538566
2022-10-03T14:01:37.109Z,98119.6681130354
2022-10-03T14:04:49.034Z,98117.23891906536
2022-10-03T14:07:34.004Z,98116.68177292137
2022-10-03T14:11:24.313Z,98113.85998881579
2022-10-03T14:14:33.706Z,98117.00936578246
2022-10-03T14:17:25.332Z,98113.3663496129
2022-10-03T14:21:43.172Z,98110.80460005607
2022-10-03T14:24:37.035Z,98116.41014491825
2022-10-03T14:27:35.609Z,98115.20552119329
2022-10-03T14:31:23.384Z,98117.95721039016
2022-10-03T14:34:32.657Z,98116.70294730645
2022-10-03T14:37:32.441Z,98117.42830862397
2022-10-03T14:41:19.834Z,98114.7662828571
2022-10-03T14:44:22.011Z,98118.1898301634
2022-10-03T14:47:18.152Z,98120.64776733622
2022-10-03T14:51:21.543Z,98115.97635667058
2022-10-03T14:54:20.932Z,98113.31010918939
2022-10-03T14:57:29.463Z,98115.19209813858
2022-10-03T15:01:23.439Z,98120.99449124579
2022-10-03T15:04:28.047Z,98122.25004719841
2022-10-03T15:07:35.817Z,98127.58116776904
2022-10-03T15:11:21.861Z,98124.59958536072
2022-10-03T15:14:18.912Z,98120.51834585113
2022-10-03T15:17:20.833Z,98118.16294620435
2022-10-03T15:21:18.138Z,98123.59502165657
2022-10-03T15:24:25.253Z,98124.70644165638
2022-10-03T15:27:22.892Z,98125.36658605571
2022-10-03T15:31:31.615Z,98134.36941505685
2022-10-03T15:34:22.850Z,98134.65629669462
2022-10-03T15:37:23.088Z,98134.13249912618
2022-10-03T15:41:21.403Z,98132.76128177227
2022-10-03T15:44:22.151Z,98136.49781612834
2022-10-03T15:47:21.322Z,98142.08688714674
2022-10-03T15:51:19.380Z,98147.67942264814
2022-10-03T15:54:21.655Z,98146.30396256446
2022-10-03T15:57:23.561Z,98150.7831416
2022-10-03T16:01:21.782Z,98152.42336758261
2022-10-03T16:04:22.541Z,98159.63304752295
2022-10-03T16:07:27.861Z,98163.22254577684
2022-10-03T16:11:20.921Z,98162.40351313524
2022-10-03T16:14:23.014Z,98169.21656555553
2022-10-03T16:17:24.133Z,98174.64449696461
2022-10-03T16:21:55.884Z,98173.32163993953
2022-10-03T16:24:26.402Z,98173.65117368783
2022-10-03T16:27:20.324Z,98172.84593458664
2022-10-03T16:31:24.549Z,98177.13842672792
2022-10-03T16:34:19.348Z,98180.17436876167
2022-10-03T16:37:19.801Z,98190.74243608209
2022-10-03T16:41:20.905Z,98189.6431158799
2022-10-03T16:44:22.193Z,98190.86147366812
2022-10-03T16:47:17.728Z,98195.19703793144
2022-10-03T16:51:20.161Z,98193.60940184763
2022-10-03T16:54:18.972Z,98196.03211897718
2022-10-03T16:57:24.417Z,98202.53787158873
2022-10-03T17:01:28.350Z,98204.48231192933
2022-10-03T17:04:22.917Z,98200.63927840123
2022-10-03T17:07:21.004Z,98198.37963813348
2022-10-03T17:11:19.669Z,98208.68594448733
2022-10-03T17:14:18.934Z,98207.15131721292
2022-10-03T17:17:27.454Z,98203.0426131327
2022-10-03T17:21:25.172Z,98208.8301978483
2022-10-03T17:24:27.039Z,98217.88852995694
2022-10-03T17:27:24.100Z,98216.20494972711
2022-10-03T17:31:27.411Z,98223.73080063071
2022-10-03T17:34:22.681Z,98224.80860820528
2022-10-03T17:37:47.571Z,98236.69620811478
2022-10-03T17:41:23.025Z,98245.71921082756
2022-10-03T17:44:33.734Z,98240.55194948152
2022-10-03T17:47:22.430Z,98239.33991870489
2022-10-03T17:51:30.490Z,98251.1056618938
2022-10-03T17:54:19.845Z,98256.45674583256
2022-10-03T17:57:22.586Z,98249.17155484126
2022-10-03T18:01:22.516Z,98243.96134601108
2022-10-03T18:04:19.354Z,98245.83822088964
2022-10-03T18:07:19.881Z,98247.15566638176
2022-10-03T18:11:23.171Z,98247.3645037632
2022-10-03T18:14:31.614Z,98246.17758194405
2022-10-03T18:17:23.942Z,98248.82285177177
2022-10-03T18:21:29.826Z,98253.47430550985
2022-10-03T18:25:30.000Z,98259.14125572323
2022-10-03T18:28:11.769Z,98257.5807392824
2022-10-03T18:31:18.353Z,98264.2176919728
2022-10-03T18:34:20.908Z,98260.0952872076
2022-10-03T18:38:03.001Z,98271.34156970374
2022-10-03T18:41:17.268Z,98269.29959060723
2022-10-03T18:44:18.801Z,98274.45895290004
2022-10-03T18:47:22.958Z,98277.14538365563
2022-10-03T18:51:25.704Z,98287.79792855628
2022-10-03T18:54:29.156Z,98289.73047632695
2022-10-03T18:57:22.581Z,98285.55053343289
2022-10-03T19:01:21.409Z,98288.34327778166
2022-10-03T19:04:32.605Z,98295.08761541551
2022-10-03T19:07:54.635Z,98297.23959904182
2022-10-03T19:11:29.624Z,98302.9383070166
2022-10-03T19:14:32.061Z,98303.93075345622
2022-10-03T19:17:34.223Z,98308.94751528671
2022-10-03T19:21:20.232Z,98306.21665353893
2022-10-03T19:24:34.521Z,98310.41219432592
2022-10-03T19:27:21.082Z,98310.36804754045
2022-10-03T19:31:26.679Z,98314.71103751918
2022-10-03T19:34:22.880Z,98317.7877505139
2022-10-03T19:37:23.968Z,98317.51961249017
2022-10-03T19:41:26.856Z,98323.05042533485
2022-10-03T19:44:20.435Z,98324.26100247687
2022-10-03T19:47:20.700Z,98325.18307376622
2022-10-03T19:51:22.763Z,98327.36776763626
2022-10-03T19:54:30.854Z,98329.84505107692
2022-10-03T19:57:20.864Z,98337.13892567858
2022-10-03T20:01:16.917Z,98335.93910759766
2022-10-03T20:04:31.451Z,98342.98005319074
2022-10-03T20:07:27.405Z,98344.44945284982
2022-10-03T20:11:26.569Z,98352.32101992841
2022-10-03T20:14:20.405Z,98354.00762446532
2022-10-03T20:17:20.854Z,98357.93191445962
2022-10-03T20:21:19.229Z,98357.81512386678
2022-10-03T20:24:25.585Z,98360.92657486966
2022-10-03T20:27:30.793Z,98363.05263298353
2022-10-03T20:31:22.663Z,98365.97662915588
2022-10-03T20:34:23.287Z,98368.44923518415
2022-10-03T20:37:30.722Z,98368.9929130057
2022-10-03T20:41:26.945Z,98373.08160831027
2022-10-03T20:44:30.580Z,98376.01701904378
2022-10-03T20:47:36.613Z,98376.77755726124
2022-10-03T20:51:22.288Z,98378.01271737035
2022-10-03T20:54:20.268Z,98381.17829337683
2022-10-03T20:57:21.428Z,98380.65336082112
2022-10-03T21:01:22.098Z,98378.95345888057
2022-10-03T21:04:24.248Z,98380.98165155537
2022-10-03T21:07:27.095Z,98383.54505463787
2022-10-03T21:11:22.044Z,98387.35230360122
2022-10-03T21:14:23.646Z,98385.44050035221
2022-10-03T21:17:19.108Z,98387.8271047784
2022-10-03T21:21:22.242Z,98389.88629020914
2022-10-03T21:24:21.817Z,98394.54382763764
2022-10-03T21:27:19.842Z,98401.04536373293
2022-10-03T21:31:28.142Z,98398.54748784454
2022-10-03T21:34:24.874Z,98397.27863616466
2022-10-03T21:37:25.328Z,98398.0170147788
2022-10-03T21:41:24.832Z,98399.5884082281
2022-10-03T21:44:46.814Z,98404.80462807746
2022-10-03T21:47:28.277Z,98406.31615234628
2022-10-03T21:51:25.891Z,98408.52711200938
2022-10-03T21:54:32.130Z,98407.20631555456
2022-10-03T21:57:28.206Z,98406.64853819316
2022-10-03T22:01:25.944Z,98402.76927535402
2022-10-03T22:04:25.895Z,98404.0183909108
2022-10-03T22:07:26.505Z,98400.86217667021
2022-10-03T22:11:29.129Z,98402.166518005
2022-10-03T22:14:28.842Z,98401.07988217149
2022-10-03T22:17:24.776Z,98396.96313216412
2022-10-03T22:21:25.973Z,98394.71737446416
2022-10-03T22:24:26.950Z,98392.99123085114
2022-10-03T22:27:21.585Z,98391.53887560303
2022-10-03T22:31:27.025Z,98390.77951103484
2022-10-03T22:34:32.281Z,98393.72393838117
2022-10-03T22:37:17.992Z,98394.59720441983
2022-10-03T22:41:22.684Z,98391.42205387511
2022-10-03T22:44:19.393Z,98393.0047581552
2022-10-03T22:47:22.203Z,98394.50558449398
2022-10-03T22:51:20.384Z,98394.40625643123
2022-10-03T22:54:18.069Z,98397.90784582468
2022-10-03T22:57:17.998Z,98393.61976202735
2022-10-03T23:01:16.654Z,98389.40897182832
2022-10-03T23:04:24.633Z,98393.97220044734
2022-10-03T23:07:38.457Z,98389.81860925007
2022-10-03T23:11:20.958Z,98389.98213727147
2022-10-03T23:14:22.708Z,98382.5117856084
2022-10-03T23:17:36.078Z,98385.02038602185
2022-10-03T23:21:17.220Z,98389.93788350359
2022-10-03T23:24:24.725Z,98385.30572338685
2022-10-03T23:31:50.457Z,98393.78153803469
2022-10-03T23:34:45.702Z,98386.27695664694
2022-10-03T23:37:49.718Z,98390.92200000187
2022-10-03T23:41:29.301Z,98388.34752675888
2022-10-03T23:44:52.195Z,98388.15266205538
2022-10-03T23:47:20.027Z,98382.12892297348
2022-10-03T23:51:19.554Z,98382.54245156664
2022-10-03T23:54:18.886Z,98391.86062451705
2022-10-03T23:57:18.660Z,98391.35944971164
